Time;durP1;ratioP1;P1;durP2;ratioP2;P2;SDS_P1;SDS_P2;PMS_P1;PMS_P2;Temp;Humidity;BMP_temperature;BMP_pressure;BME280_temperature;BME280_humidity;BME280_pressure;Samples;Min_cycle;Max_cycle;Signal;HPM_P1;HPM_P2
2023/09/17 00:01:11;;;;;;;18.48;12.55;;;20.10;99.90;;;;;;4974913;28;20042;-72
2023/09/17 00:03:37;;;;;;;16.60;11.70;;;20.00;99.90;;;;;;4985490;28;20023;-72
2023/09/17 00:06:04;;;;;;;17.80;12.25;;;20.00;99.90;;;;;;4972648;28;20053;-71
2023/09/17 00:08:30;;;;;;;18.63;12.38;;;20.00;99.90;;;;;;4972293;28;20015;-73
2023/09/17 00:10:56;;;;;;;20.25;12.23;;;19.90;99.90;;;;;;4972640;28;20122;-72
2023/09/17 00:13:22;;;;;;;20.88;12.63;;;19.90;99.90;;;;;;4974049;28;20058;-72
2023/09/17 00:15:48;;;;;;;18.63;12.15;;;19.90;99.90;;;;;;4976029;28;20023;-72
2023/09/17 00:18:15;;;;;;;21.70;11.52;;;19.70;99.90;;;;;;4963917;28;20070;-72
2023/09/17 00:20:41;;;;;;;19.33;12.82;;;19.60;99.90;;;;;;4976119;28;20023;-71
2023/09/17 00:23:07;;;;;;;18.83;12.32;;;19.50;99.90;;;;;;4976450;28;20033;-74
2023/09/17 00:25:33;;;;;;;20.52;13.25;;;19.50;99.90;;;;;;4976075;28;20375;-72
2023/09/17 00:27:59;;;;;;;21.30;13.70;;;19.50;99.90;;;;;;4976404;28;20355;-71
2023/09/17 00:30:25;;;;;;;24.17;15.40;;;19.50;99.90;;;;;;4971276;28;20035;-71
2023/09/17 00:32:51;;;;;;;21.10;14.30;;;19.50;99.90;;;;;;4961648;28;20014;-71
2023/09/17 00:35:17;;;;;;;22.77;15.60;;;19.50;99.90;;;;;;4979791;28;20030;-71
2023/09/17 00:37:43;;;;;;;18.67;14.10;;;19.40;99.90;;;;;;4979034;28;20154;-71
2023/09/17 00:40:12;;;;;;;21.25;14.40;;;19.40;99.90;;;;;;4980558;28;20034;-71
2023/09/17 00:42:40;;;;;;;20.25;13.90;;;19.40;99.90;;;;;;4975893;28;20035;-71
2023/09/17 00:45:07;;;;;;;21.33;13.93;;;19.40;99.90;;;;;;4975849;28;20063;-72
2023/09/17 00:47:33;;;;;;;21.45;14.68;;;19.40;99.90;;;;;;4975728;28;20463;-72
2023/09/17 00:50:01;;;;;;;18.98;13.52;;;19.30;99.90;;;;;;4958367;28;20470;-71
2023/09/17 00:52:28;;;;;;;20.52;13.48;;;19.30;99.90;;;;;;4975457;28;20023;-72
2023/09/17 00:54:55;;;;;;;19.15;13.70;;;19.40;99.90;;;;;;4959381;28;20047;-70
2023/09/17 00:57:22;;;;;;;20.58;14.23;;;19.40;99.90;;;;;;4958264;28;20034;-72
2023/09/17 00:59:48;;;;;;;25.50;15.23;;;19.40;99.90;;;;;;4958150;28;20504;-74
2023/09/17 01:02:20;;;;;;;27.27;14.57;;;19.20;99.90;;;;;;4975234;28;20037;-74
2023/09/17 01:04:49;;;;;;;23.45;14.00;;;19.20;99.90;;;;;;4974072;28;20474;-72
2023/09/17 01:07:20;;;;;;;29.63;14.02;;;19.20;99.90;;;;;;4973993;28;20119;-72
2023/09/17 01:09:46;;;;;;;19.30;13.55;;;19.30;99.90;;;;;;4955532;28;20039;-73
2023/09/17 01:12:13;;;;;;;22.42;13.40;;;19.20;99.90;;;;;;4974689;28;20438;-75
2023/09/17 01:14:38;;;;;;;19.95;13.90;;;19.20;99.90;;;;;;4972338;28;20026;-73
2023/09/17 01:17:09;;;;;;;21.55;13.52;;;19.10;99.90;;;;;;4972540;28;20123;-73
2023/09/17 01:19:36;;;;;;;19.35;13.02;;;19.10;99.90;;;;;;4973528;28;20093;-73
2023/09/17 01:22:11;;;;;;;20.20;13.50;;;19.10;99.90;;;;;;4973549;28;20111;-72
2023/09/17 01:24:47;;;;;;;19.40;13.25;;;18.90;99.90;;;;;;4971901;28;20023;-72
2023/09/17 01:27:14;;;;;;;19.10;13.30;;;18.90;99.90;;;;;;4969257;28;20155;-73
2023/09/17 01:29:42;;;;;;;22.83;15.60;;;18.80;99.90;;;;;;4940151;28;20018;-72
2023/09/17 01:32:11;;;;;;;22.50;16.35;;;18.80;99.90;;;;;;4942174;28;20032;-73
2023/09/17 01:34:42;;;;;;;24.08;15.35;;;18.80;99.90;;;;;;4972105;28;20014;-73
2023/09/17 01:37:23;;;;;;;19.20;13.13;;;18.90;99.90;;;;;;4971263;28;20113;-73
2023/09/17 01:40:05;;;;;;;21.25;14.45;;;18.90;99.90;;;;;;4940400;28;20074;-73
2023/09/17 01:42:33;;;;;;;22.58;13.75;;;18.90;99.90;;;;;;4971634;28;20095;-71
2023/09/17 01:45:00;;;;;;;20.70;13.75;;;18.90;99.90;;;;;;4972336;28;20021;-71
2023/09/17 01:47:28;;;;;;;19.02;13.52;;;18.80;99.90;;;;;;4938752;29;20098;-71
2023/09/17 01:49:58;;;;;;;21.58;14.98;;;18.70;99.90;;;;;;4941354;29;20031;-72
2023/09/17 01:52:26;;;;;;;20.52;14.45;;;18.70;99.90;;;;;;4956564;28;20411;-71
2023/09/17 01:54:53;;;;;;;20.55;14.75;;;18.70;99.90;;;;;;4941008;28;20078;-71
2023/09/17 01:57:19;;;;;;;19.70;13.93;;;18.80;99.90;;;;;;4970669;28;20498;-71
2023/09/17 01:59:45;;;;;;;21.33;13.98;;;18.70;99.90;;;;;;4971727;28;20027;-71
2023/09/17 02:02:11;;;;;;;20.83;13.23;;;18.70;99.90;;;;;;4972894;28;20487;-73
2023/09/17 02:04:37;;;;;;;18.58;12.70;;;18.80;99.90;;;;;;4956783;28;20174;-73
2023/09/17 02:07:03;;;;;;;21.90;14.10;;;18.80;99.90;;;;;;4972721;28;20050;-71
2023/09/17 02:09:29;;;;;;;20.77;14.40;;;18.80;99.90;;;;;;4971219;28;20046;-71
2023/09/17 02:11:55;;;;;;;22.20;14.13;;;18.80;99.90;;;;;;4956502;28;20035;-72
2023/09/17 02:14:22;;;;;;;20.83;13.95;;;18.80;99.90;;;;;;4954805;28;20397;-73
2023/09/17 02:16:49;;;;;;;21.25;14.35;;;18.80;99.90;;;;;;4971649;28;20030;-72
2023/09/17 02:19:15;;;;;;;22.30;14.55;;;18.80;99.90;;;;;;4970455;28;20708;-73
2023/09/17 02:21:40;;;;;;;17.67;13.32;;;18.80;99.90;;;;;;4956427;28;20039;-72
2023/09/17 02:24:07;;;;;;;19.25;14.23;;;18.80;99.90;;;;;;4957283;28;20047;-73
2023/09/17 02:26:33;;;;;;;20.02;13.63;;;18.80;99.90;;;;;;4972535;28;20106;-73
2023/09/17 02:28:59;;;;;;;19.27;13.40;;;18.90;99.90;;;;;;4970935;28;20113;-72
2023/09/17 02:31:25;;;;;;;21.60;14.25;;;18.80;99.90;;;;;;4971815;28;20038;-72
2023/09/17 02:33:51;;;;;;;20.70;14.20;;;18.80;99.90;;;;;;4972487;28;20015;-71
2023/09/17 02:36:17;;;;;;;21.98;14.02;;;18.80;99.90;;;;;;4939397;28;20102;-72
2023/09/17 02:38:43;;;;;;;19.08;12.85;;;18.80;99.90;;;;;;4972341;28;20411;-71
2023/09/17 02:41:09;;;;;;;21.63;14.10;;;18.80;99.90;;;;;;4954728;28;20026;-73
2023/09/17 02:43:36;;;;;;;17.98;12.90;;;18.90;99.90;;;;;;4969523;28;20027;-72
2023/09/17 02:46:06;;;;;;;18.08;13.18;;;18.80;99.90;;;;;;4973338;28;20426;-72
2023/09/17 02:48:32;;;;;;;18.65;13.68;;;18.80;99.90;;;;;;4973155;28;20031;-72
2023/09/17 02:50:59;;;;;;;21.73;14.18;;;18.80;99.90;;;;;;4964907;28;20075;-72
2023/09/17 02:53:26;;;;;;;21.02;14.02;;;18.80;99.90;;;;;;4975168;28;20054;-72
2023/09/17 02:55:52;;;;;;;22.00;14.95;;;18.80;99.90;;;;;;4983137;28;20023;-71
2023/09/17 02:58:18;;;;;;;19.90;13.27;;;18.80;99.90;;;;;;4972027;28;20090;-72
2023/09/17 03:00:44;;;;;;;21.60;15.05;;;18.70;99.90;;;;;;4972139;28;20427;-72
2023/09/17 03:03:10;;;;;;;24.15;15.35;;;18.60;99.90;;;;;;4973040;28;20073;-72
2023/09/17 03:05:39;;;;;;;20.98;14.45;;;18.70;99.90;;;;;;4973303;28;20030;-72
2023/09/17 03:08:09;;;;;;;23.67;15.40;;;18.70;99.90;;;;;;4971419;28;20421;-71
2023/09/17 03:10:41;;;;;;;21.05;13.60;;;18.70;99.90;;;;;;4971860;28;20105;-72
2023/09/17 03:13:14;;;;;;;20.73;14.38;;;18.70;99.90;;;;;;4971931;28;20066;-72
2023/09/17 03:15:41;;;;;;;21.30;15.05;;;18.70;99.90;;;;;;4971774;28;20035;-72
2023/09/17 03:18:08;;;;;;;25.92;17.02;;;18.70;99.90;;;;;;4971808;28;20027;-71
2023/09/17 03:20:35;;;;;;;23.58;16.35;;;18.70;99.90;;;;;;4987691;28;20035;-72
2023/09/17 03:23:02;;;;;;;23.13;15.73;;;18.70;99.90;;;;;;4971452;28;20043;-71
2023/09/17 03:25:31;;;;;;;19.45;13.27;;;18.60;99.90;;;;;;4987750;28;20038;-71
2023/09/17 03:28:01;;;;;;;21.02;14.00;;;18.60;99.90;;;;;;4971161;28;20426;-71
2023/09/17 03:30:28;;;;;;;20.80;12.98;;;18.60;99.90;;;;;;4987653;28;20030;-72
2023/09/17 03:32:57;;;;;;;20.08;14.07;;;18.50;99.90;;;;;;4971394;28;20026;-72
2023/09/17 03:35:25;;;;;;;20.42;13.88;;;18.50;99.90;;;;;;4972511;28;20416;-72
2023/09/17 03:37:51;;;;;;;21.67;14.85;;;18.40;99.90;;;;;;4971494;28;20490;-72
2023/09/17 03:40:17;;;;;;;22.40;14.45;;;18.50;99.90;;;;;;4971927;28;20050;-71
2023/09/17 03:42:43;;;;;;;21.92;13.90;;;18.40;99.90;;;;;;4971130;28;20473;-72
2023/09/17 03:45:13;;;;;;;22.98;15.50;;;18.40;99.90;;;;;;4971426;28;20099;-72
2023/09/17 03:47:40;;;;;;;23.15;15.68;;;18.20;99.90;;;;;;4971814;28;20027;-71
2023/09/17 03:50:08;;;;;;;23.10;16.63;;;18.10;99.90;;;;;;4975197;28;20142;-72
2023/09/17 03:52:36;;;;;;;23.30;17.40;;;18.10;99.90;;;;;;4976855;28;20025;-72
2023/09/17 03:55:05;;;;;;;24.83;17.35;;;18.10;99.90;;;;;;4975183;28;20038;-72
2023/09/17 03:57:34;;;;;;;24.67;18.30;;;18.00;99.90;;;;;;4975398;28;20031;-71
2023/09/17 04:00:05;;;;;;;25.17;18.02;;;17.90;99.90;;;;;;4974914;28;20086;-73
2023/09/17 04:02:38;;;;;;;24.50;18.60;;;18.00;99.90;;;;;;4976393;28;20141;-74
2023/09/17 04:05:10;;;;;;;22.75;16.15;;;18.00;99.90;;;;;;4989730;28;20493;-75
2023/09/17 04:07:37;;;;;;;23.80;16.05;;;17.90;99.90;;;;;;4972376;28;20046;-73
2023/09/17 04:10:05;;;;;;;27.55;18.02;;;17.80;99.90;;;;;;4974853;28;20054;-73
2023/09/17 04:12:34;;;;;;;24.95;18.58;;;17.80;99.90;;;;;;4975145;28;20509;-73
2023/09/17 04:15:00;;;;;;;30.00;19.67;;;17.80;99.90;;;;;;4991073;28;20034;-73
2023/09/17 04:17:27;;;;;;;32.13;24.65;;;17.90;99.90;;;;;;4976153;28;20026;-72
2023/09/17 04:19:53;;;;;;;43.85;30.77;;;17.90;99.90;;;;;;4974314;28;20038;-71
2023/09/17 04:22:19;;;;;;;30.98;22.27;;;17.80;99.90;;;;;;4990661;28;20057;-71
2023/09/17 04:24:44;;;;;;;31.10;21.30;;;17.90;99.90;;;;;;4958698;28;20035;-72
2023/09/17 04:27:11;;;;;;;29.83;20.52;;;17.90;99.90;;;;;;4974853;28;20042;-72
2023/09/17 04:29:37;;;;;;;32.60;20.50;;;17.90;99.90;;;;;;4963879;28;20015;-72
2023/09/17 04:32:03;;;;;;;33.35;20.95;;;17.90;99.90;;;;;;4984112;28;20046;-72
2023/09/17 04:34:29;;;;;;;30.83;20.88;;;17.80;99.90;;;;;;4971580;28;20023;-72
2023/09/17 04:36:58;;;;;;;33.20;19.92;;;17.80;99.90;;;;;;4974511;28;20057;-72
2023/09/17 04:39:25;;;;;;;30.77;21.25;;;17.90;99.90;;;;;;4975757;28;20475;-74
2023/09/17 04:41:52;;;;;;;32.80;21.15;;;18.10;99.90;;;;;;4970373;28;20087;-72
2023/09/17 04:44:18;;;;;;;24.88;17.63;;;18.20;99.90;;;;;;4965308;28;20027;-71
2023/09/17 04:46:44;;;;;;;31.60;21.20;;;18.30;99.90;;;;;;4988225;28;20061;-72
2023/09/17 04:49:11;;;;;;;29.40;21.35;;;18.40;99.90;;;;;;4968908;28;20459;-72
2023/09/17 04:51:37;;;;;;;29.48;19.90;;;18.50;99.90;;;;;;4966122;28;20023;-72
2023/09/17 04:54:04;;;;;;;33.47;21.27;;;18.80;99.90;;;;;;4964220;28;20031;-72
2023/09/17 04:56:31;;;;;;;28.77;19.50;;;19.00;99.90;;;;;;4967372;28;20033;-73
2023/09/17 04:58:58;;;;;;;27.08;17.80;;;19.30;99.90;;;;;;4973984;28;20522;-72
2023/09/17 05:01:25;;;;;;;31.55;20.80;;;19.60;99.90;;;;;;4973443;28;20074;-72
2023/09/17 05:03:51;;;;;;;29.73;20.00;;;20.00;99.90;;;;;;4969376;28;20033;-72
2023/09/17 05:06:17;;;;;;;27.70;19.38;;;20.40;99.90;;;;;;4973889;28;20081;-71
2023/09/17 05:08:43;;;;;;;24.77;18.10;;;20.70;99.90;;;;;;4974476;28;20062;-72
2023/09/17 05:11:09;;;;;;;27.25;19.73;;;21.10;99.90;;;;;;4973708;28;20451;-74
2023/09/17 05:13:37;;;;;;;29.65;18.95;;;21.40;99.90;;;;;;4956986;28;20038;-73
2023/09/17 05:16:03;;;;;;;27.23;19.08;;;21.80;99.90;;;;;;4974916;28;20391;-75
2023/09/17 05:18:29;;;;;;;26.95;17.13;;;22.20;99.90;;;;;;4974995;28;20019;-74
2023/09/17 05:20:55;;;;;;;23.77;17.27;;;22.40;99.90;;;;;;4957127;28;20066;-76
2023/09/17 05:23:23;;;;;;;22.60;15.82;;;22.70;99.90;;;;;;4956562;28;20042;-73
2023/09/17 05:25:55;;;;;;;20.75;14.55;;;22.60;99.90;;;;;;4967609;28;20058;-74
2023/09/17 05:28:23;;;;;;;18.65;13.20;;;22.80;99.90;;;;;;4957503;28;20035;-72
2023/09/17 05:30:49;;;;;;;17.02;11.25;;;23.40;99.90;;;;;;4970320;28;20074;-74
2023/09/17 05:33:15;;;;;;;16.73;12.00;;;23.00;99.90;;;;;;4979456;28;20031;-73
2023/09/17 05:35:42;;;;;;;20.13;13.85;;;22.90;99.90;;;;;;4971425;28;20505;-73
2023/09/17 05:38:08;;;;;;;21.63;13.52;;;22.50;99.90;;;;;;4970786;28;20058;-73
2023/09/17 05:40:35;;;;;;;20.52;14.98;;;21.10;99.90;;;;;;4980069;28;20023;-72
2023/09/17 05:43:01;;;;;;;20.45;15.73;;;20.70;99.90;;;;;;4973930;28;20042;-73
2023/09/17 05:45:27;;;;;;;25.80;19.13;;;20.20;99.90;;;;;;4963929;28;20389;-73
2023/09/17 05:47:53;;;;;;;22.83;17.20;;;20.40;99.90;;;;;;4962062;28;20030;-75
2023/09/17 05:50:19;;;;;;;21.58;16.15;;;20.50;99.90;;;;;;4966387;28;20015;-74
2023/09/17 05:52:45;;;;;;;30.48;20.92;;;20.80;99.90;;;;;;4974524;28;20174;-71
2023/09/17 05:55:11;;;;;;;26.95;17.33;;;20.80;99.90;;;;;;4974080;28;20134;-71
2023/09/17 05:57:38;;;;;;;22.35;17.25;;;20.20;99.90;;;;;;4955688;28;20122;-71
2023/09/17 06:00:07;;;;;;;24.05;17.70;;;19.90;99.90;;;;;;4957396;28;20035;-72
2023/09/17 06:02:42;;;;;;;23.23;17.63;;;19.60;99.90;;;;;;4974397;28;20038;-71
2023/09/17 06:05:11;;;;;;;26.42;19.77;;;19.60;99.90;;;;;;4973275;28;20498;-73
2023/09/17 06:07:36;;;;;;;28.00;20.55;;;20.00;99.90;;;;;;4972153;28;20159;-71
2023/09/17 06:10:04;;;;;;;27.77;18.92;;;19.90;99.90;;;;;;4953409;28;20051;-72
2023/09/17 06:12:31;;;;;;;28.98;18.80;;;20.20;99.90;;;;;;4949987;28;20031;-72
2023/09/17 06:14:57;;;;;;;25.75;18.55;;;20.60;99.90;;;;;;4972558;28;20410;-72
2023/09/17 06:17:22;;;;;;;25.83;18.80;;;20.90;99.90;;;;;;4974187;28;20031;-72
2023/09/17 06:19:48;;;;;;;26.05;18.45;;;21.10;99.90;;;;;;4979286;28;20030;-71
2023/09/17 06:22:14;;;;;;;25.15;18.13;;;21.20;99.90;;;;;;4980150;28;20039;-73
2023/09/17 06:24:40;;;;;;;26.42;17.55;;;21.50;99.90;;;;;;4984849;28;20030;-75
2023/09/17 06:27:06;;;;;;;24.23;17.95;;;21.60;99.90;;;;;;4986560;28;20029;-72
2023/09/17 06:29:32;;;;;;;26.73;17.92;;;21.80;99.90;;;;;;4980508;28;20073;-72
2023/09/17 06:31:58;;;;;;;27.50;16.38;;;21.90;99.90;;;;;;4969167;28;20038;-70
2023/09/17 06:34:24;;;;;;;30.52;17.83;;;22.20;99.90;;;;;;4960855;28;20056;-70
2023/09/17 06:36:49;;;;;;;26.45;17.63;;;22.10;99.90;;;;;;4958542;28;20487;-73
2023/09/17 06:39:17;;;;;;;24.02;17.75;;;22.30;99.90;;;;;;4936508;29;20043;-74
2023/09/17 06:41:44;;;;;;;26.20;17.65;;;22.50;99.90;;;;;;4971337;28;20974;-74
2023/09/17 06:44:10;;;;;;;25.55;18.83;;;22.40;99.90;;;;;;4973771;28;20073;-72
2023/09/17 06:46:36;;;;;;;25.38;18.88;;;22.80;99.90;;;;;;4973332;28;20106;-73
2023/09/17 06:49:03;;;;;;;27.00;18.85;;;22.90;99.90;;;;;;4973249;28;20133;-73
2023/09/17 06:51:29;;;;;;;25.30;18.17;;;23.10;99.90;;;;;;4973109;28;20097;-72
2023/09/17 06:53:55;;;;;;;29.88;20.02;;;23.10;99.90;;;;;;4965567;28;20125;-72
2023/09/17 06:56:23;;;;;;;25.48;17.73;;;22.90;99.90;;;;;;4969029;28;20065;-73
2023/09/17 06:58:49;;;;;;;25.33;18.30;;;23.20;99.90;;;;;;4972350;28;20105;-73
2023/09/17 07:01:15;;;;;;;25.25;18.17;;;23.30;99.90;;;;;;4973281;28;20537;-72
2023/09/17 07:03:41;;;;;;;24.88;18.77;;;23.20;99.90;;;;;;4973167;28;20034;-72
2023/09/17 07:06:07;;;;;;;26.02;18.55;;;23.10;99.90;;;;;;4973333;28;20081;-73
2023/09/17 07:08:32;;;;;;;24.17;17.35;;;23.40;99.90;;;;;;4973123;28;20447;-72
2023/09/17 07:10:58;;;;;;;22.23;16.17;;;23.60;99.90;;;;;;4973209;28;20046;-72
2023/09/17 07:13:24;;;;;;;23.75;16.25;;;23.70;99.90;;;;;;4972915;28;20038;-70
2023/09/17 07:15:50;;;;;;;23.83;16.17;;;23.70;99.90;;;;;;4973220;28;20035;-75
2023/09/17 07:18:16;;;;;;;23.27;16.85;;;23.90;99.90;;;;;;4976731;28;20379;-73
2023/09/17 07:20:41;;;;;;;23.20;15.32;;;23.90;99.90;;;;;;4978322;28;20029;-74
2023/09/17 07:23:08;;;;;;;20.40;15.80;;;24.00;99.90;;;;;;4972855;28;20475;-72
2023/09/17 07:25:33;;;;;;;23.08;16.35;;;24.00;99.90;;;;;;4972962;28;20034;-74
2023/09/17 07:28:07;;;;;;;26.08;16.70;;;24.00;99.90;;;;;;4956027;28;20039;-73
2023/09/17 07:30:36;;;;;;;24.00;16.48;;;24.10;99.90;;;;;;4968500;28;20368;-75
2023/09/17 07:33:04;;;;;;;22.80;16.58;;;24.20;99.90;;;;;;4976161;28;20112;-75
2023/09/17 07:35:30;;;;;;;23.15;15.45;;;24.20;99.90;;;;;;4972713;28;20027;-74
2023/09/17 07:37:56;;;;;;;23.80;16.45;;;24.20;99.90;;;;;;4972230;28;20041;-73
2023/09/17 07:40:22;;;;;;;22.90;16.42;;;24.00;99.90;;;;;;4972733;28;20035;-72
2023/09/17 07:42:48;;;;;;;25.15;17.73;;;23.80;99.90;;;;;;4972457;28;20480;-73
2023/09/17 07:45:14;;;;;;;24.33;17.48;;;24.20;99.90;;;;;;4972151;28;20502;-74
2023/09/17 07:47:40;;;;;;;24.80;17.75;;;23.90;99.90;;;;;;4971955;28;20058;-74
2023/09/17 07:50:06;;;;;;;24.42;17.83;;;24.00;99.90;;;;;;4972740;28;20097;-73
2023/09/17 07:52:32;;;;;;;23.92;15.18;;;24.30;99.90;;;;;;4972691;28;20030;-72
2023/09/17 07:54:58;;;;;;;21.40;15.00;;;24.30;99.90;;;;;;4972634;28;20118;-72
2023/09/17 07:57:24;;;;;;;27.48;16.25;;;24.30;99.90;;;;;;4976072;28;20110;-72
2023/09/17 07:59:51;;;;;;;22.17;14.43;;;24.60;99.90;;;;;;4972979;28;20110;-73
2023/09/17 08:02:17;;;;;;;23.23;15.38;;;24.70;99.90;;;;;;4972369;28;20078;-72
2023/09/17 08:04:43;;;;;;;20.27;14.05;;;24.70;99.90;;;;;;4972793;28;20026;-71
2023/09/17 08:07:10;;;;;;;25.05;16.00;;;24.70;99.90;;;;;;4972811;28;20023;-72
2023/09/17 08:09:36;;;;;;;21.00;14.45;;;24.90;99.90;;;;;;4970988;28;20422;-72
2023/09/17 08:12:01;;;;;;;19.92;12.98;;;24.60;99.90;;;;;;4972713;28;20034;-72
2023/09/17 08:14:28;;;;;;;18.35;13.38;;;24.70;99.90;;;;;;4972831;28;20093;-71
2023/09/17 08:16:55;;;;;;;24.65;13.82;;;24.60;99.90;;;;;;4972396;28;20027;-73
2023/09/17 08:19:21;;;;;;;23.52;14.18;;;24.80;99.90;;;;;;4971515;28;20049;-74
2023/09/17 08:21:47;;;;;;;18.65;13.77;;;25.00;99.90;;;;;;4972545;28;20042;-72
2023/09/17 08:24:14;;;;;;;20.60;14.45;;;25.20;99.90;;;;;;4971662;28;20483;-71
2023/09/17 08:26:40;;;;;;;20.83;13.07;;;25.10;99.90;;;;;;4972478;28;20042;-72
2023/09/17 08:29:06;;;;;;;18.30;14.13;;;25.30;99.90;;;;;;4972516;28;20023;-71
2023/09/17 08:31:32;;;;;;;20.45;14.10;;;25.60;99.90;;;;;;4971784;28;20026;-71
2023/09/17 08:34:00;;;;;;;19.92;13.60;;;25.20;99.90;;;;;;4980765;28;20462;-72
2023/09/17 08:36:26;;;;;;;23.58;15.45;;;25.50;99.90;;;;;;4978565;28;20113;-75
2023/09/17 08:38:53;;;;;;;29.23;15.00;;;25.80;99.90;;;;;;4975593;28;20147;-72
2023/09/17 08:41:22;;;;;;;21.05;13.88;;;25.50;99.90;;;;;;4975743;28;20038;-71
2023/09/17 08:43:53;;;;;;;18.08;13.48;;;25.60;99.90;;;;;;4975375;28;20035;-74
2023/09/17 08:46:21;;;;;;;20.17;13.55;;;25.80;99.90;;;;;;4975127;28;20023;-73
2023/09/17 08:48:47;;;;;;;23.67;14.02;;;26.00;99.90;;;;;;4984536;28;20026;-73
2023/09/17 08:51:17;;;;;;;17.60;12.90;;;26.20;99.90;;;;;;4982734;28;20381;-73
2023/09/17 08:54:06;;;;;;;21.10;13.70;;;26.00;99.90;;;;;;4958970;28;20114;-74
2023/09/17 08:56:35;;;;;;;20.38;12.13;;;26.10;99.90;;;;;;4976592;28;20038;-73
2023/09/17 08:59:05;;;;;;;28.15;13.73;;;25.70;99.90;;;;;;4974165;28;20030;-73
2023/09/17 09:01:33;;;;;;;19.95;13.63;;;25.70;99.90;;;;;;4976584;28;20037;-74
2023/09/17 09:04:01;;;;;;;17.92;13.10;;;25.80;99.90;;;;;;4976209;28;20038;-73
2023/09/17 09:06:29;;;;;;;22.67;13.77;;;26.00;99.90;;;;;;4981153;28;20029;-72
2023/09/17 09:08:55;;;;;;;18.85;12.85;;;26.20;99.90;;;;;;4971975;28;20037;-71
2023/09/17 09:11:21;;;;;;;18.50;13.45;;;26.10;99.90;;;;;;4955918;28;20099;-73
2023/09/17 09:13:50;;;;;;;18.92;12.95;;;26.40;99.90;;;;;;4956150;29;20019;-73
2023/09/17 09:16:16;;;;;;;19.20;12.82;;;26.10;99.90;;;;;;4955125;29;20027;-73
2023/09/17 09:18:43;;;;;;;19.75;14.18;;;26.40;99.90;;;;;;4956081;29;20440;-74
2023/09/17 09:21:10;;;;;;;19.92;11.95;;;26.70;99.10;;;;;;4955232;29;20118;-74
2023/09/17 09:23:36;;;;;;;19.75;12.98;;;26.60;98.90;;;;;;4955721;29;20023;-73
2023/09/17 09:26:03;;;;;;;17.70;12.93;;;26.90;98.60;;;;;;4953178;29;20439;-74
2023/09/17 09:28:33;;;;;;;21.38;13.85;;;27.10;97.70;;;;;;4954979;29;20027;-73
2023/09/17 09:30:59;;;;;;;19.75;12.13;;;27.30;97.90;;;;;;4953614;29;20071;-73
2023/09/17 09:33:26;;;;;;;16.42;11.60;;;27.30;96.10;;;;;;4955827;29;20038;-73
2023/09/17 09:35:54;;;;;;;16.67;11.43;;;27.30;95.70;;;;;;4955774;29;20046;-74
2023/09/17 09:38:20;;;;;;;19.10;11.18;;;27.30;95.50;;;;;;4955478;29;20038;-73
2023/09/17 09:40:47;;;;;;;18.02;12.23;;;27.40;94.80;;;;;;4955482;29;20034;-74
2023/09/17 09:43:32;;;;;;;17.27;12.27;;;27.50;95.90;;;;;;4955169;29;20031;-72
2023/09/17 09:46:04;;;;;;;17.23;12.00;;;27.60;96.20;;;;;;4954303;28;20019;-73
2023/09/17 09:48:31;;;;;;;16.13;11.27;;;27.70;96.30;;;;;;4955662;29;20047;-73
2023/09/17 09:50:58;;;;;;;19.63;11.43;;;27.10;98.10;;;;;;4955126;29;20035;-73
2023/09/17 09:53:24;;;;;;;16.48;11.48;;;27.30;97.50;;;;;;4954247;28;20038;-73
2023/09/17 09:55:50;;;;;;;14.85;10.88;;;27.00;96.40;;;;;;4959144;28;20027;-73
2023/09/17 09:58:17;;;;;;;16.75;10.65;;;27.20;97.10;;;;;;4955546;29;20062;-73
2023/09/17 10:00:45;;;;;;;17.08;11.20;;;27.50;96.90;;;;;;4954748;29;20023;-73
2023/09/17 10:03:29;;;;;;;17.27;10.55;;;27.50;93.50;;;;;;4955064;29;20336;-73
2023/09/17 10:06:06;;;;;;;13.90;10.00;;;27.70;92.90;;;;;;4955408;29;20443;-73
2023/09/17 10:08:37;;;;;;;16.85;9.10;;;;;;;;;;4956513;28;20038;-73
2023/09/17 10:11:05;;;;;;;21.77;9.80;;;27.90;92.30;;;;;;4974204;28;20487;-73
2023/09/17 10:13:32;;;;;;;13.85;9.40;;;27.80;93.30;;;;;;4974423;28;20022;-73
2023/09/17 10:15:59;;;;;;;12.63;8.52;;;27.60;91.70;;;;;;4974058;28;20027;-73
2023/09/17 10:18:27;;;;;;;14.10;8.57;;;27.90;97.10;;;;;;4974577;28;20444;-73
2023/09/17 10:20:55;;;;;;;13.45;8.38;;;28.50;99.90;;;;;;4973860;28;20113;-73
2023/09/17 10:23:22;;;;;;;15.20;8.35;;;;;;;;;;4974661;28;20040;-73
2023/09/17 10:25:48;;;;;;;14.07;9.18;;;28.20;97.80;;;;;;4973673;28;20368;-74
2023/09/17 10:28:17;;;;;;;16.63;9.07;;;28.20;98.20;;;;;;4974151;28;20105;-74
2023/09/17 10:30:46;;;;;;;14.73;9.82;;;28.50;99.40;;;;;;4973581;28;20030;-73
2023/09/17 10:33:14;;;;;;;11.90;7.97;;;28.50;94.00;;;;;;4973794;28;20022;-73
2023/09/17 10:35:47;;;;;;;13.48;8.82;;;28.30;92.10;;;;;;4973934;28;20023;-74
2023/09/17 10:38:16;;;;;;;17.38;9.80;;;28.10;92.50;;;;;;4973675;28;20056;-73
2023/09/17 10:40:43;;;;;;;17.60;10.20;;;28.30;93.50;;;;;;4973731;28;20077;-73
2023/09/17 10:43:10;;;;;;;14.68;9.82;;;28.50;93.30;;;;;;4973813;28;20125;-73
2023/09/17 10:45:39;;;;;;;13.27;8.98;;;28.60;96.60;;;;;;4973716;28;20415;-73
2023/09/17 10:48:08;;;;;;;14.27;9.20;;;28.20;95.30;;;;;;4973620;28;20041;-73
2023/09/17 10:50:35;;;;;;;13.30;8.70;;;28.50;95.90;;;;;;4973188;28;20023;-73
2023/09/17 10:53:00;;;;;;;12.88;8.88;;;27.90;92.10;;;;;;4973779;28;20035;-73
2023/09/17 10:55:32;;;;;;;14.35;9.00;;;28.00;92.60;;;;;;4973012;28;20019;-73
2023/09/17 10:58:09;;;;;;;15.25;8.18;;;27.70;92.50;;;;;;4973486;28;20030;-73
2023/09/17 11:00:37;;;;;;;14.63;8.88;;;27.20;92.60;;;;;;4961971;28;20042;-73
2023/09/17 11:03:04;;;;;;;13.23;8.70;;;27.20;93.10;;;;;;4966111;28;20049;-73
2023/09/17 11:05:32;;;;;;;13.75;8.50;;;27.20;92.50;;;;;;4993082;28;20056;-73
2023/09/17 11:08:04;;;;;;;14.68;8.75;;;27.50;92.60;;;;;;4976798;28;20031;-73
2023/09/17 11:10:30;;;;;;;16.00;9.20;;;27.60;91.60;;;;;;4992327;28;20054;-74
2023/09/17 11:12:56;;;;;;;16.05;8.38;;;27.90;91.90;;;;;;4992395;28;20042;-73
2023/09/17 11:15:22;;;;;;;14.07;8.70;;;27.90;91.30;;;;;;4993064;28;20491;-74
2023/09/17 11:17:49;;;;;;;14.52;9.13;;;28.10;91.60;;;;;;4992529;28;20080;-74
2023/09/17 11:20:18;;;;;;;12.25;8.13;;;28.20;86.40;;;;;;4992796;28;20037;-73
2023/09/17 11:22:50;;;;;;;12.57;8.95;;;28.20;86.10;;;;;;4991887;28;20497;-73
2023/09/17 11:25:21;;;;;;;12.90;8.98;;;;;;;;;;4992452;28;20119;-73
2023/09/17 11:27:51;;;;;;;11.98;8.70;;;;;;;;;;4991910;28;20029;-73
2023/09/17 11:30:18;;;;;;;15.18;10.13;;;;;;;;;;4992209;28;20026;-73
2023/09/17 11:32:51;;;;;;;13.90;10.10;;;;;;;;;;4992352;28;20030;-73
2023/09/17 11:35:23;;;;;;;17.63;10.60;;;28.30;99.90;;;;;;4991809;28;20096;-73
2023/09/17 11:37:50;;;;;;;16.63;9.60;;;28.50;99.80;;;;;;4992439;28;20085;-74
2023/09/17 11:40:18;;;;;;;15.73;9.32;;;;;;;;;;4990284;28;20340;-73
2023/09/17 11:42:47;;;;;;;15.13;10.68;;;;;;;;;;4992085;28;20438;-73
2023/09/17 11:45:14;;;;;;;15.25;10.40;;;28.40;83.10;;;;;;4992404;28;20085;-73
2023/09/17 11:47:40;;;;;;;16.13;11.13;;;28.40;82.50;;;;;;4991900;28;20037;-73
2023/09/17 11:50:08;;;;;;;14.52;10.18;;;28.20;81.50;;;;;;4991749;28;20474;-73
2023/09/17 11:52:34;;;;;;;14.07;9.85;;;28.20;82.30;;;;;;4992316;28;20484;-72
2023/09/17 11:55:07;;;;;;;16.83;11.10;;;28.30;80.80;;;;;;4991989;28;20026;-74
2023/09/17 11:57:34;;;;;;;14.40;9.90;;;28.30;82.10;;;;;;4992256;28;20027;-73
2023/09/17 12:00:00;;;;;;;17.13;10.60;;;28.30;81.20;;;;;;4992319;28;20015;-73
2023/09/17 12:02:27;;;;;;;15.25;9.88;;;28.40;82.50;;;;;;4992130;28;20062;-73
2023/09/17 12:04:54;;;;;;;14.82;10.73;;;28.70;90.90;;;;;;4988104;28;20049;-73
2023/09/17 12:07:21;;;;;;;14.65;10.05;;;28.60;83.80;;;;;;4988181;28;20088;-74
2023/09/17 12:10:01;;;;;;;13.95;10.52;;;28.90;94.80;;;;;;4993907;28;20048;-73
2023/09/17 12:12:29;;;;;;;15.90;11.23;;;29.00;88.40;;;;;;4995733;28;20478;-73
2023/09/17 12:14:55;;;;;;;13.60;10.38;;;29.00;80.60;;;;;;4987969;28;20026;-74
2023/09/17 12:17:21;;;;;;;13.70;10.00;;;28.80;80.00;;;;;;4982776;28;20094;-73
2023/09/17 12:19:59;;;;;;;14.45;9.75;;;28.90;80.30;;;;;;4976587;28;20367;-73
2023/09/17 12:25:48;;;;;;;15.55;11.85;;;29.10;92.80;;;;;;4975710;28;20038;-73
2023/09/17 12:28:14;;;;;;;16.23;13.20;;;29.10;79.90;;;;;;4976305;28;20030;-74
2023/09/17 12:30:40;;;;;;;15.60;12.20;;;28.90;79.10;;;;;;4976066;28;20087;-73
2023/09/17 12:33:06;;;;;;;15.98;12.18;;;29.10;79.40;;;;;;4976023;28;20061;-73
2023/09/17 12:35:32;;;;;;;16.52;12.98;;;29.20;82.60;;;;;;4976137;28;20090;-73